Etusivu
METAR-TAF:

METAR-TAF

Lentoasemat :

Kapkaupungin kansainvälinen lentoasema

Kapkaupunki, Etelä-Afrikka

Leveyspiiri: 33-59S, Pituuspiiri: 018-36E, korkeus merenpinnasta: 42 m

Tämänhetkinen sää

Tämä raportti tehtiin 57 minuuttia sitten, kello 20.00 UTC
Tuuli 4 kn lännestä/lounaasta
Lämpötila 20°C
Kosteus 73%
Ilmanpaine 1014 hPa
Näkyvyys 10 km tai enemmän
Muutamia pilviä 4000 ft:n korkeudessa

METAR: FACT 182000Z 24004KT 9999 FEW040 20/15 Q1014 NOSIG

Aika: 22:57 (20:57 UTC)

Sääennuste

Tämä raportti tehtiin 4 tuntia ja 57 minuuttia sitten, kello 16.00 UTC
Ennuste voimassa 18. päivästä klo 18 UTC - 19. päivään klo 24 UTC
Tuuli 10 kn lounaasta
Näkyvyys 10 km tai enemmän
Hajanaisia pilviä 3000 ft:n korkeudessa

TAF: FACT 181600Z 1818/1924 23010KT 9999 SCT030 TX26/1912Z TN15/1904Z

Säähavainnot ja -ennusteet yli 4000 lentoasemalta (METAR- ja TAF-raportit).

Käytössä olevat sääasemat on merkitty karttaan keltaisilla ja punaisilla pisteillä.

Aseta hiiri pisteen päälle nähdäksesi sääaseman nimen.

Klikkaa sitten nähdäksesi säähavainnot ja -ennusteet.

Kartan vaihtaminen: klikkaa mustalla rastilla varustettuja vihreitä pisteitä, niin voit zoomata sisään; viivalla varustettua vihreää pistettä, niin voit zoomata ulos tai vihreitä nuolia, niin pääset viereisille kartoille.


METAR-TAF: